createdAt,value
2022-12-05T00:04:31.773Z,9.93
2022-12-05T00:09:25.100Z,10.90
2022-12-05T00:14:18.463Z,11.93
2022-12-05T00:19:15.211Z,10.27
2022-12-05T00:24:15.755Z,13.90
2022-12-05T00:29:09.449Z,13.40
2022-12-05T00:34:04.103Z,14.97
2022-12-05T00:39:00.087Z,15.63
2022-12-05T00:43:56.776Z,15.40
2022-12-05T00:48:50.524Z,14.47
2022-12-05T00:53:45.097Z,14.93
2022-12-05T00:58:38.767Z,15.67
2022-12-05T01:03:33.743Z,13.70
2022-12-05T01:08:27.096Z,13.40
2022-12-05T01:13:20.388Z,12.77
2022-12-05T01:18:13.728Z,13.03
2022-12-05T01:23:08.939Z,12.00
2022-12-05T01:28:02.654Z,13.50
2022-12-05T01:32:56.449Z,13.50
2022-12-05T01:37:49.864Z,12.93
2022-12-05T01:42:44.738Z,12.10
2022-12-05T01:47:38.798Z,11.83
2022-12-05T01:52:34.999Z,10.83
2022-12-05T01:57:28.572Z,10.73
2022-12-05T02:02:23.728Z,11.83
2022-12-05T02:07:17.457Z,12.27
2022-12-05T02:12:10.856Z,11.13
2022-12-05T02:17:16.039Z,13.80
2022-12-05T02:22:47.660Z,11.83
2022-12-05T02:28:20.426Z,12.13
2022-12-05T02:33:24.833Z,11.80
2022-12-05T02:38:30.238Z,10.57
2022-12-05T02:43:33.425Z,11.27
2022-12-05T02:48:30.605Z,11.23
2022-12-05T02:53:28.048Z,11.53
2022-12-05T02:58:28.039Z,11.53
2022-12-05T03:03:24.521Z,11.07
2022-12-05T03:08:26.923Z,11.93
2022-12-05T03:13:27.995Z,10.73
2022-12-05T03:18:27.133Z,11.33
2022-12-05T03:23:28.385Z,11.87
2022-12-05T03:28:29.896Z,10.90
2022-12-05T03:33:29.983Z,11.77
2022-12-05T03:38:32.139Z,10.60
2022-12-05T03:43:37.231Z,10.93
2022-12-05T03:48:38.387Z,11.87
2022-12-05T03:53:39.006Z,12.27
2022-12-05T03:58:42.212Z,11.20
2022-12-05T04:03:43.445Z,11.50
2022-12-05T04:08:43.624Z,11.63
2022-12-05T04:13:43.442Z,11.97
2022-12-05T04:18:43.121Z,12.77
2022-12-05T04:23:37.858Z,12.23
2022-12-05T04:28:40.579Z,11.13
2022-12-05T04:33:43.298Z,11.63
2022-12-05T04:38:45.148Z,11.37
2022-12-05T04:43:43.832Z,10.37
2022-12-05T04:48:41.349Z,11.17
2022-12-05T04:53:37.407Z,11.47
2022-12-05T04:58:33.599Z,10.50
2022-12-05T05:03:33.561Z,11.27
2022-12-05T05:08:30.458Z,11.33
2022-12-05T05:13:25.851Z,10.70
2022-12-05T05:18:19.231Z,11.47
2022-12-05T05:23:12.579Z,10.30
2022-12-05T05:28:06.476Z,9.90
2022-12-05T05:33:02.135Z,11.33
2022-12-05T05:37:55.612Z,10.90
2022-12-05T05:42:50.859Z,11.00
2022-12-05T05:47:44.587Z,11.00
2022-12-05T05:52:39.722Z,11.77
2022-12-05T05:57:33.469Z,10.97
2022-12-05T06:02:26.868Z,12.37
2022-12-05T06:07:20.290Z,11.30
2022-12-05T06:12:15.019Z,10.57
2022-12-05T06:17:08.415Z,10.10
2022-12-05T06:22:01.764Z,11.90
2022-12-05T06:26:55.080Z,15.20
2022-12-05T06:31:49.879Z,18.37
2022-12-05T06:36:43.326Z,20.07
2022-12-05T06:41:36.683Z,19.50
2022-12-05T06:46:30.205Z,24.67
2022-12-05T06:51:25.770Z,14.27
2022-12-05T06:56:21.517Z,11.30
2022-12-05T07:01:33.828Z,11.07
2022-12-05T07:06:30.072Z,11.47
2022-12-05T07:11:23.491Z,9.27
2022-12-05T07:16:16.801Z,9.13
2022-12-05T07:21:15.153Z,8.30
2022-12-05T07:26:13.375Z,8.30
2022-12-05T07:31:09.735Z,7.40
2022-12-05T07:36:05.121Z,6.70
2022-12-05T07:40:58.671Z,6.30
2022-12-05T07:45:53.549Z,7.50
2022-12-05T07:50:47.078Z,7.30
2022-12-05T07:55:40.510Z,8.73
2022-12-05T08:00:34.257Z,9.47
2022-12-05T08:05:29.256Z,7.53
2022-12-05T08:10:22.735Z,7.27
2022-12-05T08:15:16.619Z,7.50
2022-12-05T08:20:11.715Z,7.80
2022-12-05T08:25:07.699Z,9.77
2022-12-05T08:30:01.053Z,11.60
2022-12-05T08:34:54.529Z,9.63
2022-12-05T08:39:47.809Z,7.27
2022-12-05T08:44:42.549Z,5.57
2022-12-05T08:49:35.985Z,4.50
2022-12-05T08:54:29.736Z,5.93
2022-12-05T08:59:23.092Z,7.70
2022-12-05T09:04:18.145Z,5.60
2022-12-05T09:09:13.556Z,5.97
2022-12-05T09:14:07.472Z,5.90
2022-12-05T09:19:01.416Z,9.33
2022-12-05T09:23:57.460Z,15.43
2022-12-05T09:28:54.651Z,7.97
2022-12-05T09:33:49.943Z,5.87
2022-12-05T09:38:45.115Z,41.87
2022-12-05T09:43:53.592Z,13.17
2022-12-05T09:48:47.936Z,7.50
2022-12-05T09:53:44.534Z,17.33
2022-12-05T09:58:46.070Z,12.13
2022-12-05T10:03:48.322Z,10.13
2022-12-05T10:09:06.558Z,17.87
2022-12-05T10:14:12.339Z,9.90
2022-12-05T10:19:16.123Z,6.30
2022-12-05T10:24:18.040Z,26.13
2022-12-05T10:29:26.932Z,9.07
2022-12-05T10:34:30.998Z,5.73
2022-12-05T10:39:24.633Z,6.50
2022-12-05T10:44:19.484Z,6.00
2022-12-05T10:49:14.392Z,4.60
2022-12-05T10:54:20.033Z,7.47
2022-12-05T10:59:17.175Z,8.60
2022-12-05T11:04:30.562Z,5.10
2022-12-05T11:09:27.633Z,6.03
2022-12-05T11:14:25.430Z,9.80
2022-12-05T11:19:29.719Z,5.77
2022-12-05T11:24:28.120Z,3.93
2022-12-05T11:29:36.097Z,3.77
2022-12-05T11:34:39.592Z,2.40
2022-12-05T11:39:35.282Z,2.60
2022-12-05T11:45:05.012Z,3.20
2022-12-05T11:50:29.445Z,4.50
2022-12-05T11:55:34.518Z,4.10
2022-12-05T12:00:41.333Z,4.20
2022-12-05T12:05:46.158Z,3.67
2022-12-05T12:10:53.201Z,3.23
2022-12-05T12:16:08.566Z,2.33
2022-12-05T12:21:19.115Z,2.33
2022-12-05T12:26:19.233Z,2.30
2022-12-05T12:31:52.233Z,2.40
2022-12-05T12:36:56.875Z,2.83
2022-12-05T12:42:17.349Z,2.83
2022-12-05T12:47:21.886Z,2.30
2022-12-05T12:52:23.425Z,2.47
2022-12-05T12:57:29.607Z,3.17
2022-12-05T13:02:33.167Z,3.20
2022-12-05T13:07:36.486Z,6.40
2022-12-05T13:12:38.051Z,5.23
2022-12-05T13:17:34.467Z,3.10
2022-12-05T13:22:30.555Z,2.53
2022-12-05T13:27:27.629Z,2.77
2022-12-05T13:32:32.956Z,2.70
2022-12-05T13:37:49.005Z,3.03
2022-12-05T13:42:44.093Z,2.70
2022-12-05T13:47:56.912Z,2.60
2022-12-05T13:58:45.820Z,2.93
2022-12-05T14:04:00.149Z,2.83
2022-12-05T14:08:55.867Z,2.57
2022-12-05T14:13:49.685Z,2.60
2022-12-05T14:18:51.650Z,2.83
2022-12-05T14:24:09.029Z,2.90
2022-12-05T14:29:27.993Z,3.17
2022-12-05T14:34:27.632Z,2.83
2022-12-05T14:39:39.200Z,2.57
2022-12-05T14:44:33.427Z,2.83
2022-12-05T14:49:55.782Z,3.20
2022-12-05T14:54:53.947Z,2.90
2022-12-05T14:59:53.904Z,3.27
2022-12-05T15:04:54.328Z,3.17
2022-12-05T15:10:09.729Z,3.40
2022-12-05T15:15:14.702Z,4.03
2022-12-05T15:20:21.365Z,4.90
2022-12-05T15:25:27.090Z,4.90
2022-12-05T15:30:20.917Z,4.30
2022-12-05T15:35:17.339Z,5.50
2022-12-05T15:40:17.842Z,4.80
2022-12-05T15:45:23.620Z,5.00
2022-12-05T15:50:21.582Z,4.37
2022-12-05T15:55:26.549Z,8.80
2022-12-05T16:00:23.518Z,6.97
2022-12-05T16:05:25.795Z,6.10
2022-12-05T16:10:24.689Z,5.33
2022-12-05T16:15:44.435Z,4.67
2022-12-05T16:20:41.294Z,4.63
2022-12-05T16:25:46.625Z,5.67
2022-12-05T16:30:41.453Z,4.70
2022-12-05T16:35:39.331Z,4.60
2022-12-05T16:40:38.163Z,5.80
2022-12-05T16:47:23.163Z,5.53
2022-12-05T16:59:40.239Z,4.70
2022-12-05T17:05:07.225Z,5.33
2022-12-05T17:10:08.696Z,5.13
2022-12-05T17:15:33.117Z,6.07
2022-12-05T17:21:06.770Z,5.53
2022-12-05T17:26:12.864Z,5.23
2022-12-05T17:31:43.949Z,5.07
2022-12-05T17:37:25.994Z,5.80
2022-12-05T17:42:42.421Z,5.87
2022-12-05T17:47:37.885Z,6.87
2022-12-05T17:52:31.496Z,6.47
2022-12-05T17:57:24.871Z,6.47
2022-12-05T18:02:20.185Z,6.23
2022-12-05T18:07:15.332Z,6.07
2022-12-05T18:12:08.934Z,6.27
2022-12-05T18:17:16.537Z,7.03
2022-12-05T18:22:10.011Z,8.70
2022-12-05T18:27:04.957Z,8.57
2022-12-05T18:31:58.408Z,8.60
2022-12-05T18:36:54.489Z,9.47
2022-12-05T18:41:48.148Z,8.60
2022-12-05T18:46:42.913Z,7.47
2022-12-05T18:51:36.298Z,8.73
2022-12-05T18:56:38.264Z,8.27
2022-12-05T19:01:33.532Z,7.60
2022-12-05T19:06:39.305Z,11.17
2022-12-05T19:11:35.087Z,7.83
2022-12-05T19:22:30.578Z,13.63
2022-12-05T19:27:44.602Z,18.60
2022-12-05T19:33:53.781Z,34.93
2022-12-05T19:39:04.427Z,30.30
2022-12-05T20:02:13.346Z,13.53
2022-12-05T20:07:09.827Z,11.20
2022-12-05T20:12:07.012Z,10.17
2022-12-05T20:17:02.856Z,10.20
2022-12-05T20:28:34.543Z,10.03
2022-12-05T20:33:33.835Z,9.70
2022-12-05T20:38:50.245Z,10.00
2022-12-05T20:44:26.050Z,10.90
2022-12-05T20:49:21.392Z,11.10
2022-12-05T20:54:39.937Z,11.43
2022-12-05T20:59:34.709Z,10.87
2022-12-05T21:04:28.233Z,11.47
2022-12-05T21:09:28.704Z,11.70
2022-12-05T21:14:22.319Z,11.30
2022-12-05T21:19:22.878Z,16.27
2022-12-05T21:24:16.394Z,11.03
2022-12-05T21:29:10.682Z,10.20
2022-12-05T21:34:07.380Z,9.87
2022-12-05T21:39:02.485Z,10.53
2022-12-05T21:43:56.465Z,10.73
2022-12-05T21:48:50.014Z,12.17
2022-12-05T21:53:46.560Z,11.40
2022-12-05T21:58:43.059Z,12.90
2022-12-05T22:03:36.495Z,52.43
2022-12-05T22:08:30.855Z,33.90
2022-12-05T22:13:24.162Z,22.53
2022-12-05T22:18:18.858Z,17.17
2022-12-05T22:23:16.600Z,14.27
2022-12-05T22:28:10.282Z,12.73
2022-12-05T22:33:06.148Z,12.00
2022-12-05T22:38:00.966Z,14.10
2022-12-05T22:42:54.316Z,12.43
2022-12-05T22:47:47.751Z,13.33
2022-12-05T22:52:41.114Z,13.93
2022-12-05T22:57:35.838Z,13.53
2022-12-05T23:02:29.215Z,12.70
2022-12-05T23:07:22.560Z,13.23
2022-12-05T23:12:15.930Z,11.67
2022-12-05T23:17:10.681Z,11.93
2022-12-05T23:22:04.051Z,11.37
2022-12-05T23:26:57.441Z,11.80
2022-12-05T23:31:50.793Z,11.33
2022-12-05T23:36:45.711Z,10.83
2022-12-05T23:41:39.110Z,10.73
2022-12-05T23:46:35.074Z,10.87
2022-12-05T23:51:30.931Z,10.10
2022-12-05T23:56:29.561Z,10.47
